createdAt,value
2023-05-10T00:02:25.494Z,12.85
2023-05-10T00:04:52.293Z,13.98
2023-05-10T00:07:18.859Z,12.63
2023-05-10T00:09:45.227Z,15.30
2023-05-10T00:12:11.565Z,17.67
2023-05-10T00:14:37.957Z,13.57
2023-05-10T00:17:04.325Z,16.67
2023-05-10T00:19:30.788Z,16.50
2023-05-10T00:21:57.273Z,18.85
2023-05-10T00:24:23.620Z,18.67
2023-05-10T00:26:49.925Z,20.10
2023-05-10T00:29:16.356Z,20.05
2023-05-10T00:31:42.810Z,23.45
2023-05-10T00:34:09.253Z,25.75
2023-05-10T00:36:35.644Z,23.47
2023-05-10T00:39:02.006Z,22.92
2023-05-10T00:41:28.546Z,21.02
2023-05-10T00:43:54.908Z,23.85
2023-05-10T00:46:21.570Z,26.60
2023-05-10T00:48:48.385Z,29.03
2023-05-10T00:51:14.897Z,28.05
2023-05-10T00:53:41.534Z,31.85
2023-05-10T00:56:07.894Z,33.90
2023-05-10T00:58:34.690Z,36.83
2023-05-10T01:01:02.177Z,37.43
2023-05-10T01:03:28.877Z,40.47
2023-05-10T01:05:55.656Z,39.50
2023-05-10T01:08:22.595Z,41.88
2023-05-10T01:10:50.146Z,39.45
2023-05-10T01:13:41.103Z,41.00
2023-05-10T01:16:07.943Z,37.53
2023-05-10T01:18:39.045Z,40.00
2023-05-10T01:21:18.218Z,41.75
2023-05-10T01:24:15.549Z,35.83
2023-05-10T01:27:07.008Z,35.97
2023-05-10T01:30:21.940Z,39.63
2023-05-10T01:33:12.165Z,35.05
2023-05-10T01:35:42.665Z,33.22
2023-05-10T01:38:16.688Z,41.25
2023-05-10T01:41:06.688Z,34.93
2023-05-10T01:43:42.114Z,40.63
2023-05-10T01:46:15.480Z,36.00
2023-05-10T01:48:49.361Z,41.33
2023-05-10T01:51:24.667Z,38.03
2023-05-10T01:53:55.121Z,38.90
2023-05-10T01:56:27.281Z,41.70
2023-05-10T01:58:54.534Z,42.95
2023-05-10T02:01:22.873Z,45.42
2023-05-10T02:03:51.877Z,41.90
2023-05-10T02:06:21.617Z,41.60
2023-05-10T02:08:50.185Z,46.13
2023-05-10T02:11:19.394Z,44.40
2023-05-10T02:13:48.187Z,38.83
2023-05-10T02:16:17.252Z,47.17
2023-05-10T02:18:44.538Z,40.60
2023-05-10T02:21:12.811Z,41.13
2023-05-10T02:23:40.200Z,38.47
2023-05-10T02:26:07.731Z,42.95
2023-05-10T02:28:35.865Z,43.63
2023-05-10T02:31:03.133Z,41.83
2023-05-10T02:33:31.280Z,43.42
2023-05-10T02:35:58.005Z,42.30
2023-05-10T02:38:26.349Z,38.63
2023-05-10T02:40:54.591Z,41.25
2023-05-10T02:43:24.263Z,37.37
2023-05-10T02:45:50.862Z,42.45
2023-05-10T02:48:17.813Z,45.30
2023-05-10T02:50:45.908Z,41.50
2023-05-10T02:53:19.800Z,42.85
2023-05-10T02:55:51.892Z,46.50
2023-05-10T02:58:20.255Z,47.83
2023-05-10T03:00:47.379Z,47.90
2023-05-10T03:03:13.766Z,54.65
2023-05-10T03:05:40.155Z,54.75
2023-05-10T03:08:07.096Z,57.97
2023-05-10T03:10:39.084Z,58.45
2023-05-10T03:13:13.821Z,56.15
2023-05-10T03:15:56.355Z,57.28
2023-05-10T03:18:29.173Z,62.33
2023-05-10T03:21:03.376Z,59.10
2023-05-10T03:23:52.233Z,57.40
2023-05-10T03:26:26.574Z,58.63
2023-05-10T03:28:54.299Z,60.50
2023-05-10T03:31:21.397Z,54.03
2023-05-10T03:33:51.655Z,62.87
2023-05-10T03:36:18.657Z,56.60
2023-05-10T03:38:45.725Z,59.63
2023-05-10T03:41:12.310Z,63.05
2023-05-10T03:43:39.470Z,66.15
2023-05-10T03:46:06.558Z,55.83
2023-05-10T03:48:33.831Z,59.53
2023-05-10T03:51:00.356Z,56.85
2023-05-10T03:53:27.837Z,52.28
2023-05-10T03:55:54.255Z,62.50
2023-05-10T03:58:20.694Z,58.10
2023-05-10T04:00:47.269Z,59.63
2023-05-10T04:03:14.314Z,52.58
2023-05-10T04:05:40.956Z,57.25
2023-05-10T04:08:07.391Z,57.60
2023-05-10T04:10:33.767Z,59.33
2023-05-10T04:13:00.187Z,60.05
2023-05-10T04:15:26.565Z,57.08
2023-05-10T04:17:52.985Z,57.88
2023-05-10T04:20:19.769Z,61.63
2023-05-10T04:22:46.176Z,52.80
2023-05-10T04:25:12.616Z,59.67
2023-05-10T04:27:39.008Z,58.58
2023-05-10T04:30:06.260Z,55.88
2023-05-10T04:32:32.835Z,54.47
2023-05-10T04:34:59.249Z,52.97
2023-05-10T04:37:25.794Z,54.13
2023-05-10T04:39:52.179Z,57.25
2023-05-10T04:42:18.582Z,58.30
2023-05-10T04:44:45.088Z,52.97
2023-05-10T04:47:12.828Z,57.10
2023-05-10T04:49:39.314Z,55.60
2023-05-10T04:52:05.770Z,58.83
2023-05-10T04:54:32.310Z,57.78
2023-05-10T04:56:58.676Z,60.42
2023-05-10T04:59:25.125Z,54.10
2023-05-10T05:01:51.558Z,59.72
2023-05-10T05:04:18.070Z,59.50
2023-05-10T05:06:44.449Z,63.70
2023-05-10T05:09:11.186Z,59.65
2023-05-10T05:11:37.568Z,59.13
2023-05-10T05:14:04.142Z,59.08
2023-05-10T05:16:32.249Z,64.32
2023-05-10T05:18:58.627Z,63.28
2023-05-10T05:21:26.104Z,64.47
2023-05-10T05:23:52.451Z,59.23
2023-05-10T05:26:18.776Z,57.42
2023-05-10T05:28:45.160Z,66.93
2023-05-10T05:31:11.621Z,60.38
2023-05-10T05:33:38.286Z,62.13
2023-05-10T05:36:06.319Z,55.60
2023-05-10T05:38:33.211Z,54.95
2023-05-10T05:40:59.634Z,60.88
2023-05-10T05:43:26.051Z,54.60
2023-05-10T05:45:56.893Z,54.58
2023-05-10T05:48:23.376Z,53.80
2023-05-10T05:50:49.713Z,59.10
2023-05-10T05:53:16.887Z,60.08
2023-05-10T05:55:58.052Z,52.33
2023-05-10T05:58:25.385Z,49.45
2023-05-10T06:00:52.997Z,51.40
2023-05-10T06:03:20.010Z,51.60
2023-05-10T06:05:46.504Z,46.97
2023-05-10T06:08:12.914Z,50.50
2023-05-10T06:10:39.374Z,46.22
2023-05-10T06:13:05.974Z,40.83
2023-05-10T06:15:33.506Z,43.03
2023-05-10T06:17:59.882Z,45.95
2023-05-10T06:20:26.449Z,46.20
2023-05-10T06:22:52.779Z,45.75
2023-05-10T06:25:19.391Z,47.17
2023-05-10T06:27:49.828Z,40.33
2023-05-10T06:30:18.408Z,50.97
2023-05-10T06:32:46.027Z,48.05
2023-05-10T06:35:12.515Z,48.22
2023-05-10T06:37:38.970Z,47.10
2023-05-10T06:40:06.879Z,43.67
2023-05-10T06:42:33.221Z,39.25
2023-05-10T06:44:59.678Z,39.80
2023-05-10T06:47:26.130Z,33.65
2023-05-10T06:49:52.535Z,37.73
2023-05-10T06:52:18.870Z,32.58
2023-05-10T06:54:45.410Z,33.65
2023-05-10T06:57:23.290Z,29.02
2023-05-10T06:59:57.490Z,27.95
2023-05-10T07:02:24.029Z,28.23
2023-05-10T07:04:51.021Z,24.65
2023-05-10T07:07:17.415Z,20.20
2023-05-10T07:09:43.805Z,20.02
2023-05-10T07:12:12.755Z,17.02
2023-05-10T07:14:40.859Z,14.77
2023-05-10T07:17:07.412Z,15.57
2023-05-10T07:19:33.853Z,17.35
2023-05-10T07:22:00.317Z,19.63
2023-05-10T07:24:26.662Z,13.70
2023-05-10T07:26:52.976Z,16.63
2023-05-10T07:29:19.427Z,16.23
2023-05-10T07:31:45.818Z,10.60
2023-05-10T07:34:12.272Z,10.38
2023-05-10T07:36:38.658Z,10.77
2023-05-10T07:39:05.063Z,15.83
2023-05-10T07:41:31.568Z,13.10
2023-05-10T07:43:57.915Z,10.07
2023-05-10T07:46:24.308Z,14.18
2023-05-10T07:48:50.908Z,15.68
2023-05-10T07:51:17.482Z,12.17
2023-05-10T07:53:43.831Z,14.18
2023-05-10T07:56:31.219Z,17.38
2023-05-10T07:58:57.672Z,14.73
2023-05-10T08:01:24.507Z,14.27
2023-05-10T08:03:52.133Z,16.93
2023-05-10T08:06:19.295Z,13.77
2023-05-10T08:08:50.174Z,12.05
2023-05-10T08:11:21.377Z,13.63
2023-05-10T08:13:48.961Z,11.65
2023-05-10T08:16:15.600Z,12.57
2023-05-10T08:18:42.158Z,11.55
2023-05-10T08:21:08.575Z,12.27
2023-05-10T08:23:34.939Z,11.13
2023-05-10T08:26:01.337Z,10.43
2023-05-10T08:28:28.151Z,10.53
2023-05-10T08:30:54.667Z,10.88
2023-05-10T08:33:21.432Z,13.25
2023-05-10T08:35:47.909Z,12.35
2023-05-10T08:38:14.282Z,12.63
2023-05-10T08:40:43.566Z,14.17
2023-05-10T08:43:13.713Z,14.15
2023-05-10T08:45:42.484Z,10.93
2023-05-10T08:48:11.888Z,12.10
2023-05-10T08:50:40.409Z,12.02
2023-05-10T08:53:14.338Z,17.03
2023-05-10T08:55:43.017Z,14.43
2023-05-10T08:58:10.277Z,14.85
2023-05-10T09:00:38.255Z,11.07
2023-05-10T09:03:06.105Z,13.60
2023-05-10T09:05:32.947Z,12.30
2023-05-10T09:08:01.439Z,11.63
2023-05-10T09:10:28.897Z,12.18
2023-05-10T09:12:59.429Z,8.57
2023-05-10T09:15:26.608Z,10.32
2023-05-10T09:17:53.365Z,10.17
2023-05-10T09:20:19.946Z,8.57
2023-05-10T09:22:46.351Z,8.48
2023-05-10T09:25:18.105Z,9.00
2023-05-10T09:27:47.198Z,5.57
2023-05-10T09:30:32.143Z,4.77
2023-05-10T09:33:00.537Z,4.95
2023-05-10T09:35:30.016Z,4.75
2023-05-10T09:37:59.134Z,4.13
2023-05-10T09:40:27.053Z,7.00
2023-05-10T09:43:00.741Z,4.27
2023-05-10T09:45:29.391Z,3.47
2023-05-10T09:47:56.685Z,6.30
2023-05-10T09:50:23.975Z,6.10
2023-05-10T09:52:59.343Z,3.65
2023-05-10T09:55:45.769Z,3.67
2023-05-10T09:58:13.624Z,7.00
2023-05-10T10:00:42.085Z,6.47
2023-05-10T10:03:17.357Z,6.93
2023-05-10T10:05:45.073Z,4.90
2023-05-10T10:08:12.951Z,6.83
2023-05-10T10:10:41.521Z,5.20
2023-05-10T10:13:08.724Z,4.72
2023-05-10T10:15:35.939Z,5.80
2023-05-10T10:18:04.544Z,6.03
2023-05-10T10:20:31.147Z,5.67
2023-05-10T10:22:57.745Z,4.47
2023-05-10T10:25:25.960Z,5.22
2023-05-10T10:27:52.234Z,5.65
2023-05-10T10:30:27.128Z,5.45
2023-05-10T10:33:27.732Z,4.47
2023-05-10T10:35:56.358Z,5.20
2023-05-10T10:38:23.718Z,5.07
2023-05-10T10:41:03.358Z,5.32
2023-05-10T10:43:30.461Z,6.63
2023-05-10T10:46:17.835Z,7.30
2023-05-10T10:49:11.324Z,6.07
2023-05-10T10:51:40.831Z,5.32
2023-05-10T10:54:11.261Z,5.47
2023-05-10T10:56:37.749Z,5.97
2023-05-10T10:59:04.475Z,5.17
2023-05-10T11:01:36.189Z,8.27
2023-05-10T11:04:05.951Z,5.95
2023-05-10T11:06:34.500Z,4.25
2023-05-10T11:09:07.311Z,4.82
2023-05-10T11:11:35.897Z,6.70
2023-05-10T11:14:06.920Z,5.55
2023-05-10T11:16:45.743Z,4.78
2023-05-10T11:19:13.950Z,4.40
2023-05-10T11:21:48.514Z,4.40
2023-05-10T11:24:19.805Z,4.37
2023-05-10T11:26:46.919Z,6.32
2023-05-10T11:29:14.681Z,4.55
2023-05-10T11:31:46.150Z,4.72
2023-05-10T11:34:13.646Z,4.75
2023-05-10T11:36:40.100Z,6.33
2023-05-10T11:39:06.925Z,4.95
2023-05-10T11:41:33.784Z,4.28
2023-05-10T11:44:00.399Z,4.80
2023-05-10T11:46:28.263Z,4.40
2023-05-10T11:48:58.896Z,4.83
2023-05-10T11:51:26.371Z,4.70
2023-05-10T11:53:57.436Z,3.60
2023-05-10T11:56:24.324Z,4.22
2023-05-10T11:58:56.665Z,4.63
2023-05-10T12:01:24.077Z,9.07
2023-05-10T12:03:51.588Z,9.15
2023-05-10T12:06:19.799Z,3.38
2023-05-10T12:08:47.900Z,4.55
2023-05-10T12:11:16.351Z,6.93
2023-05-10T12:13:47.406Z,6.63
2023-05-10T12:16:19.113Z,3.40
2023-05-10T12:18:46.654Z,4.53
2023-05-10T12:21:13.769Z,4.03
2023-05-10T12:23:40.751Z,2.47
2023-05-10T12:26:07.340Z,3.10
2023-05-10T12:28:34.336Z,2.53
2023-05-10T12:31:00.966Z,2.33
2023-05-10T12:33:27.375Z,5.90
2023-05-10T12:35:55.522Z,2.67
2023-05-10T12:38:39.258Z,2.67
2023-05-10T12:41:10.667Z,4.18
2023-05-10T12:43:37.292Z,1.98
2023-05-10T12:46:07.625Z,3.22
2023-05-10T12:48:35.071Z,4.30
2023-05-10T12:51:02.894Z,2.40
2023-05-10T12:53:29.276Z,3.38
2023-05-10T12:55:55.990Z,2.10
2023-05-10T13:00:54.505Z,2.42
2023-05-10T13:03:21.024Z,2.27
2023-05-10T13:05:47.460Z,2.67
2023-05-10T13:08:13.809Z,2.17
2023-05-10T13:10:40.362Z,1.75
2023-05-10T13:13:09.231Z,3.03
2023-05-10T13:15:35.682Z,3.10
2023-05-10T13:18:02.100Z,4.82
2023-05-10T13:20:28.750Z,4.55
2023-05-10T13:22:55.416Z,3.30
2023-05-10T13:25:21.853Z,3.97
2023-05-10T13:27:48.222Z,4.87
2023-05-10T13:30:14.745Z,6.55
2023-05-10T13:32:41.186Z,5.25
2023-05-10T13:35:08.545Z,5.60
2023-05-10T13:37:38.009Z,4.80
2023-05-10T13:40:05.599Z,4.50
2023-05-10T13:42:34.420Z,6.10
2023-05-10T13:45:02.662Z,4.75
2023-05-10T13:47:29.194Z,6.00
2023-05-10T13:49:55.644Z,6.28
2023-05-10T13:52:22.179Z,7.03
2023-05-10T13:54:48.522Z,6.47
2023-05-10T13:57:14.927Z,7.05
2023-05-10T13:59:41.263Z,6.82
2023-05-10T14:02:07.701Z,6.57
2023-05-10T14:04:36.337Z,5.50
2023-05-10T14:07:02.745Z,5.53
2023-05-10T14:09:29.099Z,7.30
2023-05-10T14:11:56.822Z,6.25
2023-05-10T14:14:23.388Z,8.18
2023-05-10T14:16:49.867Z,5.97
2023-05-10T14:19:16.502Z,5.72
2023-05-10T14:21:43.951Z,5.57
2023-05-10T14:24:10.450Z,6.85
2023-05-10T14:26:36.910Z,6.00
2023-05-10T14:29:03.313Z,6.33
2023-05-10T14:31:31.188Z,5.50
2023-05-10T14:33:58.650Z,7.82
2023-05-10T14:36:25.180Z,5.05
2023-05-10T14:38:51.820Z,6.60
2023-05-10T14:41:18.700Z,7.57
2023-05-10T14:43:45.029Z,5.82
2023-05-10T14:46:11.512Z,5.78
2023-05-10T14:48:37.974Z,6.15
2023-05-10T14:51:04.674Z,6.55
2023-05-10T14:53:31.182Z,7.83
2023-05-10T14:55:58.273Z,7.43
2023-05-10T14:58:24.739Z,8.00
2023-05-10T15:00:51.300Z,7.88
2023-05-10T15:03:18.197Z,9.43
2023-05-10T15:05:45.041Z,7.57
2023-05-10T15:08:13.305Z,5.43
2023-05-10T15:10:40.441Z,9.35
2023-05-10T15:13:06.779Z,7.40
2023-05-10T15:15:33.158Z,9.30
2023-05-10T15:17:59.589Z,12.97
2023-05-10T15:20:26.017Z,9.10
2023-05-10T15:22:52.360Z,9.68
2023-05-10T15:25:19.078Z,8.57
2023-05-10T15:27:45.979Z,6.70
2023-05-10T15:30:13.111Z,7.47
2023-05-10T15:32:40.911Z,7.63
2023-05-10T15:35:08.955Z,6.63
2023-05-10T15:37:35.428Z,7.18
2023-05-10T15:40:04.768Z,6.05
2023-05-10T15:42:32.605Z,7.50
2023-05-10T15:44:59.222Z,8.07
2023-05-10T15:47:27.553Z,7.00
2023-05-10T15:49:54.080Z,5.32
2023-05-10T15:52:21.585Z,5.57
2023-05-10T15:54:47.944Z,5.70
2023-05-10T15:57:14.292Z,6.85
2023-05-10T15:59:40.696Z,7.97
2023-05-10T16:02:08.717Z,8.38
2023-05-10T16:04:35.189Z,4.75
2023-05-10T16:07:01.564Z,7.70
2023-05-10T16:09:27.909Z,6.85
2023-05-10T16:11:54.393Z,6.55
2023-05-10T16:14:24.624Z,5.28
2023-05-10T16:16:51.358Z,6.90
2023-05-10T16:19:17.957Z,4.83
2023-05-10T16:21:44.431Z,6.72
2023-05-10T16:24:10.891Z,6.50
2023-05-10T16:26:40.750Z,5.93
2023-05-10T16:29:08.852Z,6.15
2023-05-10T16:31:35.596Z,5.23
2023-05-10T16:34:02.147Z,5.80
2023-05-10T16:36:29.573Z,5.75
2023-05-10T16:38:56.026Z,6.35
2023-05-10T16:41:22.744Z,7.22
2023-05-10T16:43:49.245Z,7.10
2023-05-10T16:46:16.080Z,7.03
2023-05-10T16:48:42.637Z,5.88
2023-05-10T16:51:09.418Z,4.45
2023-05-10T16:53:36.307Z,5.35
2023-05-10T16:56:03.131Z,5.40
2023-05-10T16:58:29.522Z,5.75
2023-05-10T17:00:55.939Z,6.75
2023-05-10T17:03:22.414Z,4.47
2023-05-10T17:05:49.000Z,4.20
2023-05-10T17:08:16.041Z,4.10
2023-05-10T17:10:42.612Z,4.03
2023-05-10T17:13:10.373Z,3.97
2023-05-10T17:15:37.818Z,4.68
2023-05-10T17:18:04.871Z,4.20
2023-05-10T17:20:31.379Z,3.63
2023-05-10T17:22:57.778Z,4.68
2023-05-10T17:25:24.259Z,3.60
2023-05-10T17:27:50.924Z,3.17
2023-05-10T17:30:22.421Z,3.60
2023-05-10T17:32:48.860Z,3.07
2023-05-10T17:35:15.473Z,4.45
2023-05-10T17:37:41.980Z,3.25
2023-05-10T17:40:09.945Z,4.30
2023-05-10T17:42:36.583Z,4.50
2023-05-10T17:45:03.787Z,4.97
2023-05-10T17:47:31.311Z,4.28
2023-05-10T17:49:57.712Z,6.00
2023-05-10T17:52:24.102Z,4.47
2023-05-10T17:54:50.481Z,4.57
2023-05-10T17:57:17.180Z,4.63
2023-05-10T17:59:43.570Z,5.05
2023-05-10T18:02:09.920Z,4.20
2023-05-10T18:04:39.807Z,4.88
2023-05-10T18:07:06.637Z,4.20
2023-05-10T18:09:34.055Z,4.40
2023-05-10T18:12:02.529Z,9.02
2023-05-10T18:14:39.592Z,7.07
2023-05-10T18:17:06.856Z,5.03
2023-05-10T18:19:33.497Z,4.93
2023-05-10T18:21:59.883Z,5.03
2023-05-10T18:24:37.386Z,4.97
2023-05-10T18:27:05.866Z,7.97
2023-05-10T18:29:32.552Z,5.95
2023-05-10T18:31:58.989Z,7.80
2023-05-10T18:34:25.407Z,6.63
2023-05-10T18:36:52.406Z,6.47
2023-05-10T18:39:18.969Z,6.72
2023-05-10T18:41:45.783Z,8.35
2023-05-10T18:44:12.269Z,7.22
2023-05-10T18:46:38.904Z,8.17
2023-05-10T18:49:06.457Z,7.32
2023-05-10T18:51:33.004Z,7.07
2023-05-10T18:53:59.395Z,8.13
2023-05-10T18:56:25.827Z,8.55
2023-05-10T18:58:52.656Z,8.80
2023-05-10T19:01:19.057Z,6.72
2023-05-10T19:03:45.477Z,7.53
2023-05-10T19:06:11.853Z,6.43
2023-05-10T19:08:38.264Z,7.05
2023-05-10T19:11:04.643Z,6.00
2023-05-10T19:13:31.108Z,6.90
2023-05-10T19:16:05.583Z,7.82
2023-05-10T19:18:32.477Z,8.27
2023-05-10T19:21:01.606Z,7.00
2023-05-10T19:23:30.322Z,8.97
2023-05-10T19:25:56.676Z,7.40
2023-05-10T19:28:23.073Z,6.55
2023-05-10T19:30:50.261Z,7.18
2023-05-10T19:33:19.758Z,7.10
2023-05-10T19:35:46.314Z,7.00
2023-05-10T19:38:12.825Z,6.78
2023-05-10T19:40:39.157Z,9.43
2023-05-10T19:43:05.502Z,8.23
2023-05-10T19:45:31.968Z,8.60
2023-05-10T19:47:58.349Z,9.93
2023-05-10T19:50:24.716Z,9.32
2023-05-10T19:52:51.696Z,8.27
2023-05-10T19:55:29.452Z,9.13
2023-05-10T19:57:56.316Z,9.05
2023-05-10T20:00:23.154Z,7.70
2023-05-10T20:02:49.946Z,9.18
2023-05-10T20:05:16.623Z,7.50
2023-05-10T20:07:43.130Z,8.55
2023-05-10T20:10:10.589Z,9.00
2023-05-10T20:12:37.023Z,11.03
2023-05-10T20:15:04.164Z,9.25
2023-05-10T20:17:30.588Z,7.13
2023-05-10T20:19:57.118Z,8.73
2023-05-10T20:22:23.447Z,9.07
2023-05-10T20:24:49.793Z,8.47
2023-05-10T20:27:16.174Z,9.13
2023-05-10T20:29:42.563Z,7.50
2023-05-10T20:32:08.961Z,8.98
2023-05-10T20:34:35.486Z,8.68
2023-05-10T20:37:01.945Z,10.60
2023-05-10T20:39:29.339Z,11.60
2023-05-10T20:41:55.682Z,10.82
2023-05-10T20:44:22.034Z,10.07
2023-05-10T20:46:49.696Z,8.93
2023-05-10T20:49:16.071Z,9.30
2023-05-10T20:51:42.381Z,10.10
2023-05-10T20:54:08.692Z,10.27
2023-05-10T20:56:35.044Z,8.32
2023-05-10T20:59:01.462Z,9.68
2023-05-10T21:01:27.855Z,12.23
2023-05-10T21:03:54.271Z,10.82
2023-05-10T21:06:20.830Z,9.88
2023-05-10T21:08:47.276Z,11.63
2023-05-10T21:11:14.102Z,10.18
2023-05-10T21:13:40.606Z,10.30
2023-05-10T21:16:06.988Z,10.20
2023-05-10T21:18:33.389Z,10.95
2023-05-10T21:20:59.875Z,9.63
2023-05-10T21:23:26.325Z,11.05
2023-05-10T21:25:53.432Z,11.63
2023-05-10T21:28:19.865Z,10.77
2023-05-10T21:30:46.288Z,9.73
2023-05-10T21:33:12.835Z,11.68
2023-05-10T21:35:42.532Z,10.75
2023-05-10T21:38:09.748Z,8.20
2023-05-10T21:40:36.534Z,11.90
2023-05-10T21:43:02.911Z,10.55
2023-05-10T21:45:32.701Z,9.10
2023-05-10T21:47:59.944Z,11.30
2023-05-10T21:50:27.440Z,9.07
2023-05-10T21:52:54.429Z,8.77
2023-05-10T21:55:21.023Z,8.68
2023-05-10T21:57:47.437Z,8.65
2023-05-10T22:00:14.123Z,11.18
2023-05-10T22:02:40.694Z,10.70
2023-05-10T22:05:07.583Z,9.48
2023-05-10T22:07:34.222Z,11.20
2023-05-10T22:10:00.835Z,10.27
2023-05-10T22:12:27.412Z,9.82
2023-05-10T22:15:06.438Z,9.43
2023-05-10T22:17:35.689Z,10.10
2023-05-10T22:20:02.143Z,9.77
2023-05-10T22:22:28.522Z,9.50
2023-05-10T22:24:54.920Z,9.57
2023-05-10T22:27:21.329Z,11.10
2023-05-10T22:29:48.604Z,11.48
2023-05-10T22:32:15.085Z,9.60
2023-05-10T22:34:43.112Z,9.15
2023-05-10T22:37:09.524Z,10.02
2023-05-10T22:39:35.923Z,11.43
2023-05-10T22:42:02.290Z,9.65
2023-05-10T22:44:28.728Z,9.70
2023-05-10T22:46:55.090Z,11.30
2023-05-10T22:49:21.454Z,9.02
2023-05-10T22:51:47.875Z,8.23
2023-05-10T22:54:14.203Z,8.10
2023-05-10T22:56:40.652Z,10.38
2023-05-10T22:59:06.995Z,11.38
2023-05-10T23:01:33.606Z,12.77
2023-05-10T23:03:59.969Z,12.47
2023-05-10T23:06:28.055Z,11.18
2023-05-10T23:08:55.070Z,10.77
2023-05-10T23:11:24.274Z,9.75
2023-05-10T23:13:51.405Z,10.55
2023-05-10T23:16:18.234Z,14.90
2023-05-10T23:18:44.779Z,12.05
2023-05-10T23:21:11.274Z,13.00
2023-05-10T23:23:37.726Z,9.73
2023-05-10T23:26:05.539Z,14.32
2023-05-10T23:28:32.441Z,11.70
2023-05-10T23:30:58.864Z,11.77
2023-05-10T23:33:28.523Z,12.25
2023-05-10T23:35:55.188Z,12.60
2023-05-10T23:38:21.752Z,14.52
2023-05-10T23:40:49.663Z,10.43
2023-05-10T23:43:17.596Z,11.95
2023-05-10T23:45:51.830Z,13.05
2023-05-10T23:48:18.706Z,13.27
2023-05-10T23:50:45.074Z,11.35
2023-05-10T23:53:11.591Z,12.20
2023-05-10T23:55:37.932Z,14.32
2023-05-10T23:58:05.147Z,13.95
